sensor_id;sensor_type;location;lat;lon;timestamp;pressure;altitude;pressure_sealevel;temperature;humidity
6038;BME280;3047;42.600;23.470;2023-04-04T00:01:55;91620.09;;;8.91;100.00
6038;BME280;3047;42.600;23.470;2023-04-04T00:04:22;91635.53;;;9.02;100.00
6038;BME280;3047;42.600;23.470;2023-04-04T00:06:49;91630.00;;;8.96;100.00
6038;BME280;3047;42.600;23.470;2023-04-04T00:09:16;91632.63;;;8.93;100.00
6038;BME280;3047;42.600;23.470;2023-04-04T00:11:44;91634.94;;;8.97;100.00
6038;BME280;3047;42.600;23.470;2023-04-04T00:14:11;91619.38;;;8.70;100.00
6038;BME280;3047;42.600;23.470;2023-04-04T00:16:38;91641.97;;;8.72;100.00
6038;BME280;3047;42.600;23.470;2023-04-04T00:19:05;91643.22;;;8.63;100.00
6038;BME280;3047;42.600;23.470;2023-04-04T00:21:32;91637.00;;;8.51;100.00
6038;BME280;3047;42.600;23.470;2023-04-04T00:23:59;91638.06;;;8.46;100.00
6038;BME280;3047;42.600;23.470;2023-04-04T00:26:25;91624.81;;;8.42;100.00
6038;BME280;3047;42.600;23.470;2023-04-04T00:28:53;91623.00;;;8.25;100.00
6038;BME280;3047;42.600;23.470;2023-04-04T00:31:20;91607.75;;;8.09;100.00
6038;BME280;3047;42.600;23.470;2023-04-04T00:33:47;91603.69;;;8.07;100.00
6038;BME280;3047;42.600;23.470;2023-04-04T00:36:14;91595.25;;;8.08;100.00
6038;BME280;3047;42.600;23.470;2023-04-04T00:38:41;91604.31;;;8.12;100.00
6038;BME280;3047;42.600;23.470;2023-04-04T00:41:08;91596.84;;;8.10;100.00
6038;BME280;3047;42.600;23.470;2023-04-04T00:43:35;91597.44;;;8.15;100.00
6038;BME280;3047;42.600;23.470;2023-04-04T00:46:03;91604.72;;;8.22;100.00
6038;BME280;3047;42.600;23.470;2023-04-04T00:48:30;91580.66;;;8.16;100.00
6038;BME280;3047;42.600;23.470;2023-04-04T00:50:57;91591.19;;;8.24;100.00
6038;BME280;3047;42.600;23.470;2023-04-04T00:53:24;91586.56;;;8.34;100.00
6038;BME280;3047;42.600;23.470;2023-04-04T00:55:50;91557.91;;;8.19;100.00
6038;BME280;3047;42.600;23.470;2023-04-04T00:58:17;91592.66;;;8.49;100.00
6038;BME280;3047;42.600;23.470;2023-04-04T01:00:44;91574.97;;;8.31;100.00
6038;BME280;3047;42.600;23.470;2023-04-04T01:03:12;91593.69;;;8.45;100.00
6038;BME280;3047;42.600;23.470;2023-04-04T01:05:39;91583.81;;;8.40;100.00
6038;BME280;3047;42.600;23.470;2023-04-04T01:08:06;91591.97;;;8.45;100.00
6038;BME280;3047;42.600;23.470;2023-04-04T01:10:32;91592.78;;;8.46;100.00
6038;BME280;3047;42.600;23.470;2023-04-04T01:13:00;91594.38;;;8.48;100.00
6038;BME280;3047;42.600;23.470;2023-04-04T01:15:27;91597.56;;;8.52;100.00
6038;BME280;3047;42.600;23.470;2023-04-04T01:17:58;91596.47;;;8.57;100.00
6038;BME280;3047;42.600;23.470;2023-04-04T01:20:31;91586.69;;;8.51;100.00
6038;BME280;3047;42.600;23.470;2023-04-04T01:23:00;91598.94;;;8.59;100.00
6038;BME280;3047;42.600;23.470;2023-04-04T01:25:29;91606.63;;;8.56;100.00
6038;BME280;3047;42.600;23.470;2023-04-04T01:27:56;91582.69;;;8.47;100.00
6038;BME280;3047;42.600;23.470;2023-04-04T01:30:24;91610.19;;;8.69;100.00
6038;BME280;3047;42.600;23.470;2023-04-04T01:32:55;91612.28;;;8.78;100.00
6038;BME280;3047;42.600;23.470;2023-04-04T01:35:29;91610.53;;;8.80;100.00
6038;BME280;3047;42.600;23.470;2023-04-04T01:38:07;91581.03;;;8.65;100.00
6038;BME280;3047;42.600;23.470;2023-04-04T01:40:40;91605.16;;;8.88;100.00
6038;BME280;3047;42.600;23.470;2023-04-04T01:43:10;91611.81;;;8.89;100.00
6038;BME280;3047;42.600;23.470;2023-04-04T01:45:37;91618.22;;;8.96;100.00
6038;BME280;3047;42.600;23.470;2023-04-04T01:48:05;91607.97;;;8.99;100.00
6038;BME280;3047;42.600;23.470;2023-04-04T01:50:32;91611.25;;;9.01;100.00
6038;BME280;3047;42.600;23.470;2023-04-04T01:52:59;91604.66;;;8.99;100.00
6038;BME280;3047;42.600;23.470;2023-04-04T01:55:25;91608.72;;;9.01;100.00
6038;BME280;3047;42.600;23.470;2023-04-04T01:57:54;91608.66;;;9.03;100.00
6038;BME280;3047;42.600;23.470;2023-04-04T02:00:20;91602.88;;;9.01;100.00
6038;BME280;3047;42.600;23.470;2023-04-04T02:02:47;91599.47;;;9.02;100.00
6038;BME280;3047;42.600;23.470;2023-04-04T02:05:14;91598.75;;;9.00;100.00
6038;BME280;3047;42.600;23.470;2023-04-04T02:07:41;91604.59;;;9.00;100.00
6038;BME280;3047;42.600;23.470;2023-04-04T02:10:08;91600.16;;;8.86;100.00
6038;BME280;3047;42.600;23.470;2023-04-04T02:12:34;91600.81;;;8.91;100.00
6038;BME280;3047;42.600;23.470;2023-04-04T02:15:03;91597.53;;;8.89;100.00
6038;BME280;3047;42.600;23.470;2023-04-04T02:17:30;91603.44;;;8.88;100.00
6038;BME280;3047;42.600;23.470;2023-04-04T02:19:57;91597.66;;;8.86;100.00
6038;BME280;3047;42.600;23.470;2023-04-04T02:22:23;91586.53;;;8.73;100.00
6038;BME280;3047;42.600;23.470;2023-04-04T02:24:50;91581.56;;;8.72;100.00
6038;BME280;3047;42.600;23.470;2023-04-04T02:27:18;91584.56;;;8.61;100.00
6038;BME280;3047;42.600;23.470;2023-04-04T02:29:44;91576.53;;;8.53;100.00
6038;BME280;3047;42.600;23.470;2023-04-04T02:32:12;91567.16;;;8.56;100.00
6038;BME280;3047;42.600;23.470;2023-04-04T02:34:39;91573.59;;;8.62;100.00
6038;BME280;3047;42.600;23.470;2023-04-04T02:37:06;91573.22;;;8.52;100.00
6038;BME280;3047;42.600;23.470;2023-04-04T02:39:33;91570.91;;;8.48;100.00
6038;BME280;3047;42.600;23.470;2023-04-04T02:42:00;91568.53;;;8.45;100.00
6038;BME280;3047;42.600;23.470;2023-04-04T02:44:26;91569.00;;;8.53;100.00
6038;BME280;3047;42.600;23.470;2023-04-04T02:46:53;91567.09;;;8.58;100.00
6038;BME280;3047;42.600;23.470;2023-04-04T02:49:21;91571.25;;;8.59;100.00
6038;BME280;3047;42.600;23.470;2023-04-04T02:51:48;91569.53;;;8.59;100.00
6038;BME280;3047;42.600;23.470;2023-04-04T02:54:15;91575.66;;;8.54;100.00
6038;BME280;3047;42.600;23.470;2023-04-04T02:56:41;91579.44;;;8.62;100.00
6038;BME280;3047;42.600;23.470;2023-04-04T02:59:08;91577.50;;;8.50;100.00
6038;BME280;3047;42.600;23.470;2023-04-04T03:01:35;91577.22;;;8.56;100.00
6038;BME280;3047;42.600;23.470;2023-04-04T03:04:02;91549.50;;;8.39;100.00
6038;BME280;3047;42.600;23.470;2023-04-04T03:06:31;91572.28;;;8.55;100.00
6038;BME280;3047;42.600;23.470;2023-04-04T03:08:58;91571.38;;;8.56;100.00
6038;BME280;3047;42.600;23.470;2023-04-04T03:11:25;91574.03;;;8.53;100.00
6038;BME280;3047;42.600;23.470;2023-04-04T03:13:52;91579.28;;;8.48;100.00
6038;BME280;3047;42.600;23.470;2023-04-04T03:16:20;91567.91;;;8.39;100.00
6038;BME280;3047;42.600;23.470;2023-04-04T03:18:47;91575.19;;;8.46;100.00
6038;BME280;3047;42.600;23.470;2023-04-04T03:21:13;91581.34;;;8.38;100.00
6038;BME280;3047;42.600;23.470;2023-04-04T03:23:42;91573.75;;;8.40;100.00
6038;BME280;3047;42.600;23.470;2023-04-04T03:26:08;91573.63;;;8.43;100.00
6038;BME280;3047;42.600;23.470;2023-04-04T03:28:36;91576.19;;;8.41;100.00
6038;BME280;3047;42.600;23.470;2023-04-04T03:31:03;91564.81;;;8.33;100.00
6038;BME280;3047;42.600;23.470;2023-04-04T03:33:30;91557.16;;;8.36;100.00
6038;BME280;3047;42.600;23.470;2023-04-04T03:35:57;91558.28;;;8.29;100.00
6038;BME280;3047;42.600;23.470;2023-04-04T03:38:24;91557.63;;;8.25;100.00
6038;BME280;3047;42.600;23.470;2023-04-04T03:41:01;91471.56;;;7.81;100.00
6038;BME280;3047;42.600;23.470;2023-04-04T03:43:28;91556.81;;;8.25;100.00
6038;BME280;3047;42.600;23.470;2023-04-04T03:45:59;91561.56;;;8.31;100.00
6038;BME280;3047;42.600;23.470;2023-04-04T03:48:25;91567.13;;;8.39;100.00
6038;BME280;3047;42.600;23.470;2023-04-04T03:50:52;91563.06;;;8.35;100.00
6038;BME280;3047;42.600;23.470;2023-04-04T03:53:19;91562.72;;;8.42;100.00
6038;BME280;3047;42.600;23.470;2023-04-04T03:55:46;91571.94;;;8.44;100.00
6038;BME280;3047;42.600;23.470;2023-04-04T03:58:14;91548.53;;;8.23;100.00
6038;BME280;3047;42.600;23.470;2023-04-04T04:00:40;91565.25;;;8.42;100.00
6038;BME280;3047;42.600;23.470;2023-04-04T04:03:07;91570.81;;;8.49;100.00
6038;BME280;3047;42.600;23.470;2023-04-04T04:05:34;91568.78;;;8.38;100.00
6038;BME280;3047;42.600;23.470;2023-04-04T04:08:01;91568.78;;;8.38;100.00
6038;BME280;3047;42.600;23.470;2023-04-04T04:10:27;91572.06;;;8.40;100.00
6038;BME280;3047;42.600;23.470;2023-04-04T04:12:54;91577.81;;;8.42;100.00
6038;BME280;3047;42.600;23.470;2023-04-04T04:15:22;91578.16;;;8.54;100.00
6038;BME280;3047;42.600;23.470;2023-04-04T04:17:49;91585.88;;;8.51;100.00
6038;BME280;3047;42.600;23.470;2023-04-04T04:20:16;91586.75;;;8.50;100.00
6038;BME280;3047;42.600;23.470;2023-04-04T04:22:44;91591.63;;;8.53;100.00
6038;BME280;3047;42.600;23.470;2023-04-04T04:25:11;91598.84;;;8.60;100.00
6038;BME280;3047;42.600;23.470;2023-04-04T04:27:38;91597.97;;;8.61;100.00
6038;BME280;3047;42.600;23.470;2023-04-04T04:30:06;91593.81;;;8.60;100.00
6038;BME280;3047;42.600;23.470;2023-04-04T04:32:34;91532.53;;;8.24;100.00
6038;BME280;3047;42.600;23.470;2023-04-04T04:35:01;91593.69;;;8.63;100.00
6038;BME280;3047;42.600;23.470;2023-04-04T04:37:28;91597.06;;;8.62;100.00
6038;BME280;3047;42.600;23.470;2023-04-04T04:39:54;91601.03;;;8.49;100.00
6038;BME280;3047;42.600;23.470;2023-04-04T04:42:21;91593.25;;;8.54;100.00
6038;BME280;3047;42.600;23.470;2023-04-04T04:44:48;91613.59;;;8.68;100.00
6038;BME280;3047;42.600;23.470;2023-04-04T04:47:15;91604.63;;;8.62;100.00
6038;BME280;3047;42.600;23.470;2023-04-04T04:49:43;91614.06;;;8.57;100.00
6038;BME280;3047;42.600;23.470;2023-04-04T04:52:12;91619.66;;;8.64;100.00
6038;BME280;3047;42.600;23.470;2023-04-04T04:54:39;91616.69;;;8.56;100.00
6038;BME280;3047;42.600;23.470;2023-04-04T04:57:05;91619.59;;;8.65;100.00
6038;BME280;3047;42.600;23.470;2023-04-04T04:59:32;91621.50;;;8.60;100.00
6038;BME280;3047;42.600;23.470;2023-04-04T05:01:59;91593.13;;;8.38;100.00
6038;BME280;3047;42.600;23.470;2023-04-04T05:04:25;91581.09;;;8.45;100.00
6038;BME280;3047;42.600;23.470;2023-04-04T05:06:53;91634.91;;;8.80;100.00
6038;BME280;3047;42.600;23.470;2023-04-04T05:09:20;91635.59;;;8.83;100.00
6038;BME280;3047;42.600;23.470;2023-04-04T05:11:47;91637.00;;;8.89;100.00
6038;BME280;3047;42.600;23.470;2023-04-04T05:14:13;91642.63;;;8.94;100.00
6038;BME280;3047;42.600;23.470;2023-04-04T05:16:40;91642.56;;;8.96;100.00
6038;BME280;3047;42.600;23.470;2023-04-04T05:19:07;91658.16;;;9.04;100.00
6038;BME280;3047;42.600;23.470;2023-04-04T05:21:33;91656.22;;;9.09;100.00
6038;BME280;3047;42.600;23.470;2023-04-04T05:24:02;91656.91;;;9.12;100.00
6038;BME280;3047;42.600;23.470;2023-04-04T05:26:29;91655.22;;;9.13;100.00
6038;BME280;3047;42.600;23.470;2023-04-04T05:28:55;91650.97;;;9.13;100.00
6038;BME280;3047;42.600;23.470;2023-04-04T05:31:23;91654.91;;;9.19;100.00
6038;BME280;3047;42.600;23.470;2023-04-04T05:33:50;91653.81;;;9.25;100.00
6038;BME280;3047;42.600;23.470;2023-04-04T05:36:18;91655.31;;;9.29;100.00
6038;BME280;3047;42.600;23.470;2023-04-04T05:38:44;91655.09;;;9.33;100.00
6038;BME280;3047;42.600;23.470;2023-04-04T05:41:12;91660.13;;;9.33;100.00
6038;BME280;3047;42.600;23.470;2023-04-04T05:43:39;91653.97;;;9.39;100.00
6038;BME280;3047;42.600;23.470;2023-04-04T05:46:06;91665.34;;;9.48;100.00
6038;BME280;3047;42.600;23.470;2023-04-04T05:48:33;91658.22;;;9.56;100.00
6038;BME280;3047;42.600;23.470;2023-04-04T05:51:00;91645.03;;;9.51;100.00
6038;BME280;3047;42.600;23.470;2023-04-04T05:53:26;91660.38;;;9.63;100.00
6038;BME280;3047;42.600;23.470;2023-04-04T05:55:53;91649.72;;;9.58;100.00
6038;BME280;3047;42.600;23.470;2023-04-04T05:58:21;91653.22;;;9.73;100.00
6038;BME280;3047;42.600;23.470;2023-04-04T06:00:48;91639.75;;;9.55;100.00
6038;BME280;3047;42.600;23.470;2023-04-04T06:03:15;91648.75;;;9.61;100.00
6038;BME280;3047;42.600;23.470;2023-04-04T06:05:41;91664.69;;;9.79;100.00
6038;BME280;3047;42.600;23.470;2023-04-04T06:08:09;91669.38;;;9.86;100.00
6038;BME280;3047;42.600;23.470;2023-04-04T06:10:35;91651.81;;;9.85;100.00
6038;BME280;3047;42.600;23.470;2023-04-04T06:13:02;91647.72;;;9.82;100.00
6038;BME280;3047;42.600;23.470;2023-04-04T06:15:30;91659.88;;;9.91;100.00
6038;BME280;3047;42.600;23.470;2023-04-04T06:17:57;91669.91;;;9.93;100.00
6038;BME280;3047;42.600;23.470;2023-04-04T06:20:23;91661.88;;;9.85;100.00
6038;BME280;3047;42.600;23.470;2023-04-04T06:22:50;91673.72;;;10.00;100.00
6038;BME280;3047;42.600;23.470;2023-04-04T06:25:17;91650.00;;;9.87;100.00
6038;BME280;3047;42.600;23.470;2023-04-04T06:27:44;91670.41;;;10.00;100.00
6038;BME280;3047;42.600;23.470;2023-04-04T06:30:12;91680.19;;;10.06;100.00
6038;BME280;3047;42.600;23.470;2023-04-04T06:32:42;91658.00;;;9.95;100.00
6038;BME280;3047;42.600;23.470;2023-04-04T06:35:09;91686.63;;;10.11;100.00
6038;BME280;3047;42.600;23.470;2023-04-04T06:37:36;91676.31;;;10.16;100.00
6038;BME280;3047;42.600;23.470;2023-04-04T06:40:03;91697.53;;;10.12;100.00
6038;BME280;3047;42.600;23.470;2023-04-04T06:42:29;91697.63;;;10.10;100.00
6038;BME280;3047;42.600;23.470;2023-04-04T06:44:56;91695.47;;;10.03;100.00
6038;BME280;3047;42.600;23.470;2023-04-04T06:47:23;91700.38;;;10.06;100.00
6038;BME280;3047;42.600;23.470;2023-04-04T06:49:51;91703.47;;;10.11;100.00
6038;BME280;3047;42.600;23.470;2023-04-04T06:52:18;91686.78;;;9.91;100.00
6038;BME280;3047;42.600;23.470;2023-04-04T06:54:45;91711.72;;;9.97;100.00
6038;BME280;3047;42.600;23.470;2023-04-04T06:57:11;91716.59;;;9.83;100.00
6038;BME280;3047;42.600;23.470;2023-04-04T06:59:38;91709.81;;;9.85;100.00
6038;BME280;3047;42.600;23.470;2023-04-04T07:02:05;91727.81;;;9.95;100.00
6038;BME280;3047;42.600;23.470;2023-04-04T07:04:31;91733.44;;;10.00;100.00
6038;BME280;3047;42.600;23.470;2023-04-04T07:07:00;91717.28;;;9.86;100.00
6038;BME280;3047;42.600;23.470;2023-04-04T07:09:27;91741.59;;;9.87;100.00
6038;BME280;3047;42.600;23.470;2023-04-04T07:11:54;91738.13;;;9.90;100.00
6038;BME280;3047;42.600;23.470;2023-04-04T07:14:21;91740.75;;;9.88;100.00
6038;BME280;3047;42.600;23.470;2023-04-04T07:16:49;91742.03;;;9.78;100.00
6038;BME280;3047;42.600;23.470;2023-04-04T07:19:16;91721.50;;;9.32;100.00
6038;BME280;3047;42.600;23.470;2023-04-04T07:21:43;91772.34;;;9.22;100.00
6038;BME280;3047;42.600;23.470;2023-04-04T07:24:11;91778.81;;;8.89;100.00
6038;BME280;3047;42.600;23.470;2023-04-04T07:26:37;91780.75;;;8.64;100.00
6038;BME280;3047;42.600;23.470;2023-04-04T07:29:05;91781.75;;;8.39;100.00
6038;BME280;3047;42.600;23.470;2023-04-04T07:31:32;91792.00;;;8.35;100.00
6038;BME280;3047;42.600;23.470;2023-04-04T07:33:59;91764.72;;;8.04;100.00
6038;BME280;3047;42.600;23.470;2023-04-04T07:36:26;91804.34;;;7.99;100.00
6038;BME280;3047;42.600;23.470;2023-04-04T07:38:53;91813.34;;;7.82;100.00
6038;BME280;3047;42.600;23.470;2023-04-04T07:41:21;91829.16;;;7.40;100.00
6038;BME280;3047;42.600;23.470;2023-04-04T07:43:48;91819.25;;;7.14;100.00
6038;BME280;3047;42.600;23.470;2023-04-04T07:46:14;91828.41;;;7.15;100.00
6038;BME280;3047;42.600;23.470;2023-04-04T07:48:42;91822.47;;;7.17;100.00
6038;BME280;3047;42.600;23.470;2023-04-04T07:51:08;91807.31;;;6.97;100.00
6038;BME280;3047;42.600;23.470;2023-04-04T07:53:35;91844.78;;;7.02;100.00
6038;BME280;3047;42.600;23.470;2023-04-04T07:56:02;91823.59;;;6.85;100.00
6038;BME280;3047;42.600;23.470;2023-04-04T07:58:32;91861.84;;;6.92;100.00
6038;BME280;3047;42.600;23.470;2023-04-04T08:00:59;91864.72;;;6.81;100.00
6038;BME280;3047;42.600;23.470;2023-04-04T08:03:26;91848.84;;;6.56;100.00
6038;BME280;3047;42.600;23.470;2023-04-04T08:05:52;91871.06;;;6.66;100.00
6038;BME280;3047;42.600;23.470;2023-04-04T08:08:19;91867.25;;;6.56;100.00
6038;BME280;3047;42.600;23.470;2023-04-04T08:10:46;91864.34;;;6.42;100.00
6038;BME280;3047;42.600;23.470;2023-04-04T08:13:14;91869.91;;;6.25;100.00
6038;BME280;3047;42.600;23.470;2023-04-04T08:15:42;91876.94;;;6.14;100.00
6038;BME280;3047;42.600;23.470;2023-04-04T08:18:09;91873.94;;;6.03;100.00
6038;BME280;3047;42.600;23.470;2023-04-04T08:20:36;91820.59;;;5.71;100.00
6038;BME280;3047;42.600;23.470;2023-04-04T08:23:03;91859.03;;;5.70;100.00
6038;BME280;3047;42.600;23.470;2023-04-04T08:25:29;91878.88;;;5.78;100.00
6038;BME280;3047;42.600;23.470;2023-04-04T08:27:56;91858.44;;;5.63;100.00
6038;BME280;3047;42.600;23.470;2023-04-04T08:30:23;91872.13;;;5.52;100.00
6038;BME280;3047;42.600;23.470;2023-04-04T08:32:51;91877.28;;;5.45;100.00
6038;BME280;3047;42.600;23.470;2023-04-04T08:35:18;91871.13;;;5.57;100.00
6038;BME280;3047;42.600;23.470;2023-04-04T08:37:45;91877.63;;;5.63;100.00
6038;BME280;3047;42.600;23.470;2023-04-04T08:40:12;91886.06;;;5.60;100.00
6038;BME280;3047;42.600;23.470;2023-04-04T08:42:40;91868.53;;;5.60;100.00
6038;BME280;3047;42.600;23.470;2023-04-04T08:45:10;91901.84;;;5.62;100.00
6038;BME280;3047;42.600;23.470;2023-04-04T08:47:37;91898.25;;;5.71;100.00
6038;BME280;3047;42.600;23.470;2023-04-04T08:50:07;91908.47;;;5.65;100.00
6038;BME280;3047;42.600;23.470;2023-04-04T08:52:34;91907.72;;;5.61;100.00
6038;BME280;3047;42.600;23.470;2023-04-04T08:55:01;91908.91;;;5.50;100.00
6038;BME280;3047;42.600;23.470;2023-04-04T08:57:29;91898.16;;;5.46;100.00
6038;BME280;3047;42.600;23.470;2023-04-04T08:59:57;91921.88;;;5.64;100.00
6038;BME280;3047;42.600;23.470;2023-04-04T09:02:28;91911.88;;;5.62;100.00
6038;BME280;3047;42.600;23.470;2023-04-04T09:04:59;91931.75;;;5.68;100.00
6038;BME280;3047;42.600;23.470;2023-04-04T09:07:29;91898.19;;;5.44;100.00
6038;BME280;3047;42.600;23.470;2023-04-04T09:09:56;91942.72;;;5.64;100.00
6038;BME280;3047;42.600;23.470;2023-04-04T09:12:23;91927.13;;;5.55;100.00
6038;BME280;3047;42.600;23.470;2023-04-04T09:14:52;91899.28;;;5.36;100.00
6038;BME280;3047;42.600;23.470;2023-04-04T09:17:20;91926.28;;;5.56;100.00
6038;BME280;3047;42.600;23.470;2023-04-04T09:19:48;91931.75;;;5.68;100.00
6038;BME280;3047;42.600;23.470;2023-04-04T09:22:15;91878.31;;;5.38;100.00
6038;BME280;3047;42.600;23.470;2023-04-04T09:24:43;91921.06;;;5.62;100.00
6038;BME280;3047;42.600;23.470;2023-04-04T09:27:11;91924.03;;;5.75;100.00
6038;BME280;3047;42.600;23.470;2023-04-04T09:29:39;91912.66;;;5.64;100.00
6038;BME280;3047;42.600;23.470;2023-04-04T09:32:09;91914.06;;;5.73;100.00
6038;BME280;3047;42.600;23.470;2023-04-04T09:34:40;91917.59;;;5.67;100.00
6038;BME280;3047;42.600;23.470;2023-04-04T09:37:08;91931.06;;;5.63;100.00
6038;BME280;3047;42.600;23.470;2023-04-04T09:39:38;91925.22;;;5.63;100.00
6038;BME280;3047;42.600;23.470;2023-04-04T09:42:07;91930.13;;;5.66;100.00
6038;BME280;3047;42.600;23.470;2023-04-04T09:44:34;91935.16;;;5.66;100.00
6038;BME280;3047;42.600;23.470;2023-04-04T09:47:22;91914.66;;;5.53;100.00
6038;BME280;3047;42.600;23.470;2023-04-04T09:49:48;91938.34;;;5.71;100.00
6038;BME280;3047;42.600;23.470;2023-04-04T09:52:17;91932.22;;;5.52;100.00
6038;BME280;3047;42.600;23.470;2023-04-04T09:54:44;91948.41;;;5.69;100.00
6038;BME280;3047;42.600;23.470;2023-04-04T09:57:12;91944.81;;;5.78;100.00
6038;BME280;3047;42.600;23.470;2023-04-04T09:59:38;91953.00;;;5.83;100.00
6038;BME280;3047;42.600;23.470;2023-04-04T10:02:08;91954.09;;;5.75;100.00
6038;BME280;3047;42.600;23.470;2023-04-04T10:04:35;91965.72;;;5.77;100.00
6038;BME280;3047;42.600;23.470;2023-04-04T10:07:03;91958.97;;;5.79;100.00
6038;BME280;3047;42.600;23.470;2023-04-04T10:09:29;91957.03;;;5.89;100.00
6038;BME280;3047;42.600;23.470;2023-04-04T10:12:07;91949.16;;;5.73;100.00
6038;BME280;3047;42.600;23.470;2023-04-04T10:14:35;91962.31;;;5.80;100.00
6038;BME280;3047;42.600;23.470;2023-04-04T10:17:06;91966.59;;;5.76;100.00
6038;BME280;3047;42.600;23.470;2023-04-04T10:19:35;91966.41;;;5.53;100.00
6038;BME280;3047;42.600;23.470;2023-04-04T10:22:03;91946.94;;;5.33;100.00
6038;BME280;3047;42.600;23.470;2023-04-04T10:24:30;91972.16;;;5.27;100.00
6038;BME280;3047;42.600;23.470;2023-04-04T10:26:56;91977.59;;;5.41;100.00
6038;BME280;3047;42.600;23.470;2023-04-04T10:29:23;91971.81;;;5.39;100.00
6038;BME280;3047;42.600;23.470;2023-04-04T10:31:56;91978.53;;;5.37;100.00
6038;BME280;3047;42.600;23.470;2023-04-04T10:34:29;91986.72;;;5.43;100.00
6038;BME280;3047;42.600;23.470;2023-04-04T10:37:04;91936.69;;;5.11;100.00
6038;BME280;3047;42.600;23.470;2023-04-04T10:39:36;91933.38;;;5.09;100.00
6038;BME280;3047;42.600;23.470;2023-04-04T10:42:04;91989.53;;;5.31;100.00
6038;BME280;3047;42.600;23.470;2023-04-04T10:44:33;91993.06;;;5.24;100.00
6038;BME280;3047;42.600;23.470;2023-04-04T10:47:08;91984.69;;;5.25;100.00
6038;BME280;3047;42.600;23.470;2023-04-04T10:49:39;91989.38;;;5.37;100.00
6038;BME280;3047;42.600;23.470;2023-04-04T10:52:08;92001.06;;;5.37;100.00
6038;BME280;3047;42.600;23.470;2023-04-04T10:54:36;92001.84;;;5.39;100.00
6038;BME280;3047;42.600;23.470;2023-04-04T10:57:03;91997.66;;;5.39;100.00
6038;BME280;3047;42.600;23.470;2023-04-04T10:59:30;92004.38;;;5.39;100.00
6038;BME280;3047;42.600;23.470;2023-04-04T11:01:58;91963.50;;;5.06;100.00
6038;BME280;3047;42.600;23.470;2023-04-04T11:04:31;92006.19;;;5.32;100.00
6038;BME280;3047;42.600;23.470;2023-04-04T11:07:17;92014.25;;;5.43;100.00
6038;BME280;3047;42.600;23.470;2023-04-04T11:09:52;92014.06;;;5.51;100.00
6038;BME280;3047;42.600;23.470;2023-04-04T11:12:21;92016.66;;;5.46;100.00
6038;BME280;3047;42.600;23.470;2023-04-04T11:14:56;92010.38;;;5.32;100.00
6038;BME280;3047;42.600;23.470;2023-04-04T11:20:32;91985.81;;;5.13;100.00
6038;BME280;3047;42.600;23.470;2023-04-04T11:23:08;92007.34;;;5.20;100.00
6038;BME280;3047;42.600;23.470;2023-04-04T11:25:37;92010.59;;;5.24;100.00
6038;BME280;3047;42.600;23.470;2023-04-04T11:28:06;92010.22;;;5.38;100.00
6038;BME280;3047;42.600;23.470;2023-04-04T11:30:41;92018.47;;;5.41;100.00
6038;BME280;3047;42.600;23.470;2023-04-04T11:33:13;92014.16;;;5.14;100.00
6038;BME280;3047;42.600;23.470;2023-04-04T11:35:57;92034.31;;;5.09;100.00
6038;BME280;3047;42.600;23.470;2023-04-04T11:38:26;92034.66;;;4.95;100.00
6038;BME280;3047;42.600;23.470;2023-04-04T11:40:54;92023.00;;;4.94;100.00
6038;BME280;3047;42.600;23.470;2023-04-04T11:43:21;92023.84;;;4.95;100.00
6038;BME280;3047;42.600;23.470;2023-04-04T11:45:49;92023.72;;;4.98;100.00
6038;BME280;3047;42.600;23.470;2023-04-04T11:48:17;92030.47;;;4.96;100.00
6038;BME280;3047;42.600;23.470;2023-04-04T11:50:46;92027.34;;;4.88;100.00
6038;BME280;3047;42.600;23.470;2023-04-04T11:53:17;92005.81;;;4.81;100.00
6038;BME280;3047;42.600;23.470;2023-04-04T11:55:47;92012.38;;;4.86;100.00
6038;BME280;3047;42.600;23.470;2023-04-04T11:58:15;92024.75;;;4.91;100.00
6038;BME280;3047;42.600;23.470;2023-04-04T12:00:43;92022.28;;;4.89;100.00
6038;BME280;3047;42.600;23.470;2023-04-04T12:03:11;92017.72;;;5.07;100.00
6038;BME280;3047;42.600;23.470;2023-04-04T12:05:38;92020.75;;;5.18;100.00
6038;BME280;3047;42.600;23.470;2023-04-04T12:08:07;92033.84;;;5.28;100.00
6038;BME280;3047;42.600;23.470;2023-04-04T12:10:38;92014.72;;;5.25;100.00
6038;BME280;3047;42.600;23.470;2023-04-04T12:13:06;92016.41;;;5.25;100.00
6038;BME280;3047;42.600;23.470;2023-04-04T12:15:34;91940.66;;;4.85;100.00
6038;BME280;3047;42.600;23.470;2023-04-04T12:18:02;92007.53;;;5.13;100.00
6038;BME280;3047;42.600;23.470;2023-04-04T12:20:29;92035.81;;;5.16;100.00
6038;BME280;3047;42.600;23.470;2023-04-04T12:22:56;92038.38;;;5.13;100.00
6038;BME280;3047;42.600;23.470;2023-04-04T12:25:23;92035.06;;;5.13;100.00
6038;BME280;3047;42.600;23.470;2023-04-04T12:27:54;92030.31;;;5.02;100.00
6038;BME280;3047;42.600;23.470;2023-04-04T12:30:21;92031.03;;;5.07;100.00
6038;BME280;3047;42.600;23.470;2023-04-04T12:32:49;92007.44;;;4.82;100.00
6038;BME280;3047;42.600;23.470;2023-04-04T12:35:17;92031.44;;;4.90;100.00
6038;BME280;3047;42.600;23.470;2023-04-04T12:37:57;92032.84;;;5.01;100.00
6038;BME280;3047;42.600;23.470;2023-04-04T12:40:30;92027.34;;;4.88;100.00
6038;BME280;3047;42.600;23.470;2023-04-04T12:42:59;92032.38;;;4.86;100.00
6038;BME280;3047;42.600;23.470;2023-04-04T12:45:26;92037.59;;;4.77;100.00
6038;BME280;3047;42.600;23.470;2023-04-04T12:47:55;92025.88;;;4.79;100.00
6038;BME280;3047;42.600;23.470;2023-04-04T12:50:23;92043.03;;;4.94;100.00
6038;BME280;3047;42.600;23.470;2023-04-04T12:52:51;92025.59;;;4.91;100.00
6038;BME280;3047;42.600;23.470;2023-04-04T12:55:20;92036.53;;;4.86;100.00
6038;BME280;3047;42.600;23.470;2023-04-04T12:57:48;92048.31;;;4.82;100.00
6038;BME280;3047;42.600;23.470;2023-04-04T13:00:18;92036.69;;;4.80;100.00
6038;BME280;3047;42.600;23.470;2023-04-04T13:02:48;92058.69;;;4.67;100.00
6038;BME280;3047;42.600;23.470;2023-04-04T13:05:15;92068.69;;;4.67;100.00
6038;BME280;3047;42.600;23.470;2023-04-04T13:07:43;92069.34;;;4.74;100.00
6038;BME280;3047;42.600;23.470;2023-04-04T13:10:12;92071.91;;;4.72;100.00
6038;BME280;3047;42.600;23.470;2023-04-04T13:12:57;92069.41;;;4.72;100.00
6038;BME280;3047;42.600;23.470;2023-04-04T13:15:49;92067.88;;;4.66;100.00
6038;BME280;3047;42.600;23.470;2023-04-04T13:18:18;92072.81;;;4.68;100.00